sensor_id;sensor_type;location;lat;lon;timestamp;P1;durP1;ratioP1;P2;durP2;ratioP2
41446;SDS011;27185;52.040;4.490;2023-03-24T00:01:53;7.88;;;3.38;;
41446;SDS011;27185;52.040;4.490;2023-03-24T00:04:39;11.57;;;3.55;;
41446;SDS011;27185;52.040;4.490;2023-03-24T00:07:26;11.63;;;4.13;;
41446;SDS011;27185;52.040;4.490;2023-03-24T00:10:15;8.98;;;2.97;;
41446;SDS011;27185;52.040;4.490;2023-03-24T00:15:50;8.55;;;3.30;;
41446;SDS011;27185;52.040;4.490;2023-03-24T00:18:35;6.88;;;2.65;;
41446;SDS011;27185;52.040;4.490;2023-03-24T00:21:24;9.27;;;3.67;;
41446;SDS011;27185;52.040;4.490;2023-03-24T00:24:10;10.23;;;3.38;;
41446;SDS011;27185;52.040;4.490;2023-03-24T00:26:56;7.20;;;3.20;;
41446;SDS011;27185;52.040;4.490;2023-03-24T00:29:42;7.82;;;3.20;;
41446;SDS011;27185;52.040;4.490;2023-03-24T00:32:28;11.18;;;3.20;;
41446;SDS011;27185;52.040;4.490;2023-03-24T00:35:15;7.30;;;2.90;;
41446;SDS011;27185;52.040;4.490;2023-03-24T00:38:01;6.70;;;2.95;;
41446;SDS011;27185;52.040;4.490;2023-03-24T00:40:47;7.70;;;2.80;;
41446;SDS011;27185;52.040;4.490;2023-03-24T00:43:34;7.80;;;2.58;;
41446;SDS011;27185;52.040;4.490;2023-03-24T00:46:20;6.05;;;2.83;;
41446;SDS011;27185;52.040;4.490;2023-03-24T00:49:12;10.45;;;2.92;;
41446;SDS011;27185;52.040;4.490;2023-03-24T00:51:59;9.97;;;3.33;;
41446;SDS011;27185;52.040;4.490;2023-03-24T00:54:46;8.65;;;2.53;;
41446;SDS011;27185;52.040;4.490;2023-03-24T00:57:33;7.65;;;3.13;;
41446;SDS011;27185;52.040;4.490;2023-03-24T01:00:20;6.60;;;2.72;;
41446;SDS011;27185;52.040;4.490;2023-03-24T01:03:08;9.25;;;3.10;;
41446;SDS011;27185;52.040;4.490;2023-03-24T01:05:54;7.40;;;3.10;;
41446;SDS011;27185;52.040;4.490;2023-03-24T01:08:45;7.05;;;3.10;;
41446;SDS011;27185;52.040;4.490;2023-03-24T01:11:33;8.55;;;3.03;;
41446;SDS011;27185;52.040;4.490;2023-03-24T01:14:23;5.80;;;2.72;;
41446;SDS011;27185;52.040;4.490;2023-03-24T01:17:09;8.73;;;2.17;;
41446;SDS011;27185;52.040;4.490;2023-03-24T01:19:55;6.25;;;2.50;;
41446;SDS011;27185;52.040;4.490;2023-03-24T01:22:41;9.63;;;3.25;;
41446;SDS011;27185;52.040;4.490;2023-03-24T01:25:28;6.75;;;2.97;;
41446;SDS011;27185;52.040;4.490;2023-03-24T01:28:15;8.93;;;3.00;;
41446;SDS011;27185;52.040;4.490;2023-03-24T01:31:07;8.88;;;3.17;;
41446;SDS011;27185;52.040;4.490;2023-03-24T01:36:39;7.70;;;2.80;;
41446;SDS011;27185;52.040;4.490;2023-03-24T01:39:25;5.82;;;2.42;;
41446;SDS011;27185;52.040;4.490;2023-03-24T01:42:15;6.13;;;1.45;;
41446;SDS011;27185;52.040;4.490;2023-03-24T01:54:22;13.38;;;1.80;;
41446;SDS011;27185;52.040;4.490;2023-03-24T02:00:19;14.07;;;1.55;;
41446;SDS011;27185;52.040;4.490;2023-03-24T02:03:11;11.38;;;2.20;;
41446;SDS011;27185;52.040;4.490;2023-03-24T02:06:02;12.10;;;1.60;;
41446;SDS011;27185;52.040;4.490;2023-03-24T02:08:51;12.38;;;1.85;;
41446;SDS011;27185;52.040;4.490;2023-03-24T02:11:39;17.23;;;1.80;;
41446;SDS011;27185;52.040;4.490;2023-03-24T02:14:25;13.82;;;1.55;;
41446;SDS011;27185;52.040;4.490;2023-03-24T02:17:14;11.10;;;1.73;;
41446;SDS011;27185;52.040;4.490;2023-03-24T02:20:10;13.13;;;1.80;;
41446;SDS011;27185;52.040;4.490;2023-03-24T02:29:51;11.68;;;1.95;;
41446;SDS011;27185;52.040;4.490;2023-03-24T02:32:52;11.75;;;1.73;;
41446;SDS011;27185;52.040;4.490;2023-03-24T02:45:35;13.10;;;1.90;;
41446;SDS011;27185;52.040;4.490;2023-03-24T02:51:26;14.98;;;1.55;;
41446;SDS011;27185;52.040;4.490;2023-03-24T02:57:33;20.42;;;2.30;;
41446;SDS011;27185;52.040;4.490;2023-03-24T03:03:26;12.25;;;2.08;;
41446;SDS011;27185;52.040;4.490;2023-03-24T03:06:14;24.58;;;2.72;;
41446;SDS011;27185;52.040;4.490;2023-03-24T03:09:07;15.80;;;2.25;;
41446;SDS011;27185;52.040;4.490;2023-03-24T03:11:56;16.70;;;2.55;;
41446;SDS011;27185;52.040;4.490;2023-03-24T03:17:37;16.42;;;2.53;;
41446;SDS011;27185;52.040;4.490;2023-03-24T03:20:38;15.88;;;2.20;;
41446;SDS011;27185;52.040;4.490;2023-03-24T03:23:35;11.00;;;1.70;;
41446;SDS011;27185;52.040;4.490;2023-03-24T03:26:24;17.10;;;1.98;;
41446;SDS011;27185;52.040;4.490;2023-03-24T03:29:14;18.38;;;1.80;;
41446;SDS011;27185;52.040;4.490;2023-03-24T03:32:06;15.45;;;2.72;;
41446;SDS011;27185;52.040;4.490;2023-03-24T03:34:59;12.60;;;1.63;;
41446;SDS011;27185;52.040;4.490;2023-03-24T03:37:56;16.92;;;2.70;;
41446;SDS011;27185;52.040;4.490;2023-03-24T03:41:02;22.63;;;3.00;;
41446;SDS011;27185;52.040;4.490;2023-03-24T03:43:49;20.27;;;2.87;;
41446;SDS011;27185;52.040;4.490;2023-03-24T03:46:36;14.40;;;2.63;;
41446;SDS011;27185;52.040;4.490;2023-03-24T03:49:22;23.20;;;3.45;;
41446;SDS011;27185;52.040;4.490;2023-03-24T03:52:09;19.75;;;2.28;;
41446;SDS011;27185;52.040;4.490;2023-03-24T03:54:55;21.15;;;2.78;;
41446;SDS011;27185;52.040;4.490;2023-03-24T03:57:41;24.02;;;3.25;;
41446;SDS011;27185;52.040;4.490;2023-03-24T04:00:27;21.88;;;3.38;;
41446;SDS011;27185;52.040;4.490;2023-03-24T04:03:18;23.98;;;3.22;;
41446;SDS011;27185;52.040;4.490;2023-03-24T04:21:42;24.60;;;3.08;;
41446;SDS011;27185;52.040;4.490;2023-03-24T04:24:50;22.75;;;3.53;;
41446;SDS011;27185;52.040;4.490;2023-03-24T04:27:51;23.65;;;3.47;;
41446;SDS011;27185;52.040;4.490;2023-03-24T04:31:34;29.50;;;3.83;;
41446;SDS011;27185;52.040;4.490;2023-03-24T04:34:26;21.08;;;3.50;;
41446;SDS011;27185;52.040;4.490;2023-03-24T04:37:17;27.48;;;4.20;;
41446;SDS011;27185;52.040;4.490;2023-03-24T04:40:16;33.45;;;4.60;;
41446;SDS011;27185;52.040;4.490;2023-03-24T04:45:52;31.35;;;4.88;;
41446;SDS011;27185;52.040;4.490;2023-03-24T04:48:41;38.95;;;5.32;;
41446;SDS011;27185;52.040;4.490;2023-03-24T04:51:28;31.92;;;5.20;;
41446;SDS011;27185;52.040;4.490;2023-03-24T04:54:13;28.08;;;4.63;;
41446;SDS011;27185;52.040;4.490;2023-03-24T04:57:00;24.27;;;4.47;;
41446;SDS011;27185;52.040;4.490;2023-03-24T04:59:46;30.52;;;4.55;;
41446;SDS011;27185;52.040;4.490;2023-03-24T05:02:32;34.38;;;5.07;;
41446;SDS011;27185;52.040;4.490;2023-03-24T05:05:17;36.83;;;6.03;;
41446;SDS011;27185;52.040;4.490;2023-03-24T05:08:03;28.60;;;4.53;;
41446;SDS011;27185;52.040;4.490;2023-03-24T05:10:49;31.88;;;5.15;;
41446;SDS011;27185;52.040;4.490;2023-03-24T05:13:35;28.40;;;4.22;;
41446;SDS011;27185;52.040;4.490;2023-03-24T05:16:20;37.65;;;4.88;;
41446;SDS011;27185;52.040;4.490;2023-03-24T05:19:06;36.03;;;4.85;;
41446;SDS011;27185;52.040;4.490;2023-03-24T05:21:52;33.78;;;4.45;;
41446;SDS011;27185;52.040;4.490;2023-03-24T05:24:38;20.90;;;4.10;;
41446;SDS011;27185;52.040;4.490;2023-03-24T05:27:24;29.23;;;3.95;;
41446;SDS011;27185;52.040;4.490;2023-03-24T05:30:10;27.50;;;4.47;;
41446;SDS011;27185;52.040;4.490;2023-03-24T05:32:56;35.00;;;4.80;;
41446;SDS011;27185;52.040;4.490;2023-03-24T05:35:42;21.63;;;3.67;;
41446;SDS011;27185;52.040;4.490;2023-03-24T05:38:28;20.77;;;3.65;;
41446;SDS011;27185;52.040;4.490;2023-03-24T05:41:13;34.53;;;5.43;;
41446;SDS011;27185;52.040;4.490;2023-03-24T05:43:59;26.35;;;3.25;;
41446;SDS011;27185;52.040;4.490;2023-03-24T05:46:44;22.38;;;2.80;;
41446;SDS011;27185;52.040;4.490;2023-03-24T05:49:30;25.38;;;4.35;;
41446;SDS011;27185;52.040;4.490;2023-03-24T05:52:16;33.70;;;3.60;;
41446;SDS011;27185;52.040;4.490;2023-03-24T05:55:01;24.73;;;3.38;;
41446;SDS011;27185;52.040;4.490;2023-03-24T05:57:47;20.38;;;2.95;;
41446;SDS011;27185;52.040;4.490;2023-03-24T06:00:33;24.15;;;3.60;;
41446;SDS011;27185;52.040;4.490;2023-03-24T06:03:18;21.48;;;3.33;;
41446;SDS011;27185;52.040;4.490;2023-03-24T06:06:05;19.10;;;3.30;;
41446;SDS011;27185;52.040;4.490;2023-03-24T06:08:52;25.50;;;3.83;;
41446;SDS011;27185;52.040;4.490;2023-03-24T06:11:38;25.02;;;3.22;;
41446;SDS011;27185;52.040;4.490;2023-03-24T06:14:24;30.48;;;4.28;;
41446;SDS011;27185;52.040;4.490;2023-03-24T06:17:10;21.95;;;3.47;;
41446;SDS011;27185;52.040;4.490;2023-03-24T06:19:59;23.35;;;3.50;;
41446;SDS011;27185;52.040;4.490;2023-03-24T06:22:48;25.55;;;3.83;;
41446;SDS011;27185;52.040;4.490;2023-03-24T06:25:34;29.55;;;3.83;;
41446;SDS011;27185;52.040;4.490;2023-03-24T06:28:20;28.60;;;4.93;;
41446;SDS011;27185;52.040;4.490;2023-03-24T06:31:06;34.13;;;4.43;;
41446;SDS011;27185;52.040;4.490;2023-03-24T06:33:58;27.05;;;3.67;;
41446;SDS011;27185;52.040;4.490;2023-03-24T06:36:44;24.23;;;3.17;;
41446;SDS011;27185;52.040;4.490;2023-03-24T06:39:30;33.00;;;4.50;;
41446;SDS011;27185;52.040;4.490;2023-03-24T06:42:15;24.70;;;4.80;;
41446;SDS011;27185;52.040;4.490;2023-03-24T06:45:02;20.67;;;2.97;;
41446;SDS011;27185;52.040;4.490;2023-03-24T06:47:50;20.63;;;3.25;;
41446;SDS011;27185;52.040;4.490;2023-03-24T06:50:39;25.90;;;2.95;;
41446;SDS011;27185;52.040;4.490;2023-03-24T06:53:25;25.77;;;3.38;;
41446;SDS011;27185;52.040;4.490;2023-03-24T06:56:11;27.25;;;4.55;;
41446;SDS011;27185;52.040;4.490;2023-03-24T06:59:01;29.55;;;4.00;;
41446;SDS011;27185;52.040;4.490;2023-03-24T07:01:46;27.98;;;4.47;;
41446;SDS011;27185;52.040;4.490;2023-03-24T07:04:33;26.63;;;3.25;;
41446;SDS011;27185;52.040;4.490;2023-03-24T07:07:20;28.38;;;3.17;;
41446;SDS011;27185;52.040;4.490;2023-03-24T07:10:06;27.52;;;4.22;;
41446;SDS011;27185;52.040;4.490;2023-03-24T07:12:52;21.83;;;4.32;;
41446;SDS011;27185;52.040;4.490;2023-03-24T07:15:37;23.92;;;3.13;;
41446;SDS011;27185;52.040;4.490;2023-03-24T07:18:23;18.50;;;2.83;;
41446;SDS011;27185;52.040;4.490;2023-03-24T07:21:10;26.90;;;3.60;;
41446;SDS011;27185;52.040;4.490;2023-03-24T07:23:55;20.77;;;3.72;;
41446;SDS011;27185;52.040;4.490;2023-03-24T07:26:41;23.90;;;3.47;;
41446;SDS011;27185;52.040;4.490;2023-03-24T07:29:26;27.92;;;4.07;;
41446;SDS011;27185;52.040;4.490;2023-03-24T07:32:12;32.83;;;3.92;;
41446;SDS011;27185;52.040;4.490;2023-03-24T07:34:58;26.48;;;3.63;;
41446;SDS011;27185;52.040;4.490;2023-03-24T07:37:45;23.23;;;3.15;;
41446;SDS011;27185;52.040;4.490;2023-03-24T07:40:31;32.13;;;4.55;;
41446;SDS011;27185;52.040;4.490;2023-03-24T07:43:18;25.45;;;3.58;;
41446;SDS011;27185;52.040;4.490;2023-03-24T07:46:05;28.75;;;3.30;;
41446;SDS011;27185;52.040;4.490;2023-03-24T07:48:51;26.58;;;3.50;;
41446;SDS011;27185;52.040;4.490;2023-03-24T07:51:37;24.60;;;3.88;;
41446;SDS011;27185;52.040;4.490;2023-03-24T07:54:22;18.10;;;3.13;;
41446;SDS011;27185;52.040;4.490;2023-03-24T07:57:08;17.70;;;2.55;;
41446;SDS011;27185;52.040;4.490;2023-03-24T07:59:53;25.88;;;2.72;;
41446;SDS011;27185;52.040;4.490;2023-03-24T08:02:39;17.83;;;2.20;;
41446;SDS011;27185;52.040;4.490;2023-03-24T08:05:26;20.88;;;2.63;;
41446;SDS011;27185;52.040;4.490;2023-03-24T08:08:13;18.15;;;3.35;;
41446;SDS011;27185;52.040;4.490;2023-03-24T08:10:59;22.77;;;3.33;;
41446;SDS011;27185;52.040;4.490;2023-03-24T08:13:45;20.35;;;2.90;;
41446;SDS011;27185;52.040;4.490;2023-03-24T08:16:31;20.35;;;2.85;;
41446;SDS011;27185;52.040;4.490;2023-03-24T08:19:16;22.25;;;2.95;;
41446;SDS011;27185;52.040;4.490;2023-03-24T08:22:02;15.50;;;2.13;;
41446;SDS011;27185;52.040;4.490;2023-03-24T08:24:48;18.45;;;3.13;;
41446;SDS011;27185;52.040;4.490;2023-03-24T08:27:33;15.10;;;2.03;;
41446;SDS011;27185;52.040;4.490;2023-03-24T08:30:19;15.07;;;2.55;;
41446;SDS011;27185;52.040;4.490;2023-03-24T08:33:07;18.35;;;2.38;;
41446;SDS011;27185;52.040;4.490;2023-03-24T08:35:55;22.35;;;3.95;;
41446;SDS011;27185;52.040;4.490;2023-03-24T08:38:41;14.95;;;2.65;;
41446;SDS011;27185;52.040;4.490;2023-03-24T08:41:27;17.92;;;3.20;;
41446;SDS011;27185;52.040;4.490;2023-03-24T08:44:18;20.90;;;2.88;;
41446;SDS011;27185;52.040;4.490;2023-03-24T08:47:04;14.18;;;2.47;;
41446;SDS011;27185;52.040;4.490;2023-03-24T08:49:53;10.13;;;2.13;;
41446;SDS011;27185;52.040;4.490;2023-03-24T08:52:41;14.88;;;2.25;;
41446;SDS011;27185;52.040;4.490;2023-03-24T08:55:27;14.20;;;2.20;;
41446;SDS011;27185;52.040;4.490;2023-03-24T08:58:16;16.40;;;2.75;;
41446;SDS011;27185;52.040;4.490;2023-03-24T09:01:03;16.45;;;2.80;;
41446;SDS011;27185;52.040;4.490;2023-03-24T09:03:49;14.95;;;2.53;;
41446;SDS011;27185;52.040;4.490;2023-03-24T09:06:35;16.83;;;3.13;;
41446;SDS011;27185;52.040;4.490;2023-03-24T09:09:21;19.52;;;2.45;;
41446;SDS011;27185;52.040;4.490;2023-03-24T09:12:07;16.77;;;2.65;;
41446;SDS011;27185;52.040;4.490;2023-03-24T09:14:53;15.85;;;2.47;;
41446;SDS011;27185;52.040;4.490;2023-03-24T09:17:39;17.80;;;2.72;;
41446;SDS011;27185;52.040;4.490;2023-03-24T09:20:25;15.15;;;2.42;;
41446;SDS011;27185;52.040;4.490;2023-03-24T09:23:11;15.77;;;2.58;;
41446;SDS011;27185;52.040;4.490;2023-03-24T09:25:57;18.23;;;2.35;;
41446;SDS011;27185;52.040;4.490;2023-03-24T09:28:43;12.95;;;2.20;;
41446;SDS011;27185;52.040;4.490;2023-03-24T09:31:28;17.42;;;2.47;;
41446;SDS011;27185;52.040;4.490;2023-03-24T09:34:14;16.75;;;3.08;;
41446;SDS011;27185;52.040;4.490;2023-03-24T09:37:00;20.60;;;3.20;;
41446;SDS011;27185;52.040;4.490;2023-03-24T09:39:45;24.02;;;3.85;;
41446;SDS011;27185;52.040;4.490;2023-03-24T09:42:32;16.77;;;2.75;;
41446;SDS011;27185;52.040;4.490;2023-03-24T09:45:20;19.58;;;2.42;;
41446;SDS011;27185;52.040;4.490;2023-03-24T09:48:10;20.65;;;3.17;;
41446;SDS011;27185;52.040;4.490;2023-03-24T09:51:04;14.38;;;2.25;;
41446;SDS011;27185;52.040;4.490;2023-03-24T09:54:15;16.55;;;1.85;;
41446;SDS011;27185;52.040;4.490;2023-03-24T09:57:54;18.42;;;2.85;;
41446;SDS011;27185;52.040;4.490;2023-03-24T10:03:19;19.35;;;2.83;;
41446;SDS011;27185;52.040;4.490;2023-03-24T10:06:08;14.55;;;2.10;;
41446;SDS011;27185;52.040;4.490;2023-03-24T10:09:18;13.20;;;2.85;;
41446;SDS011;27185;52.040;4.490;2023-03-24T10:15:27;12.10;;;2.00;;
41446;SDS011;27185;52.040;4.490;2023-03-24T10:18:29;16.75;;;2.30;;
41446;SDS011;27185;52.040;4.490;2023-03-24T10:21:25;15.75;;;2.42;;
41446;SDS011;27185;52.040;4.490;2023-03-24T10:24:15;17.20;;;2.83;;
41446;SDS011;27185;52.040;4.490;2023-03-24T10:27:26;11.45;;;1.70;;
41446;SDS011;27185;52.040;4.490;2023-03-24T10:30:19;10.15;;;1.60;;
41446;SDS011;27185;52.040;4.490;2023-03-24T10:33:09;18.20;;;2.22;;
41446;SDS011;27185;52.040;4.490;2023-03-24T10:36:15;14.35;;;2.67;;
41446;SDS011;27185;52.040;4.490;2023-03-24T10:39:02;19.85;;;3.10;;
41446;SDS011;27185;52.040;4.490;2023-03-24T10:41:48;17.85;;;2.38;;
41446;SDS011;27185;52.040;4.490;2023-03-24T10:44:35;13.73;;;2.27;;
41446;SDS011;27185;52.040;4.490;2023-03-24T10:47:24;15.02;;;2.25;;
41446;SDS011;27185;52.040;4.490;2023-03-24T10:50:12;14.35;;;2.58;;
41446;SDS011;27185;52.040;4.490;2023-03-24T10:52:59;11.75;;;2.28;;
41446;SDS011;27185;52.040;4.490;2023-03-24T10:55:44;20.02;;;2.72;;
41446;SDS011;27185;52.040;4.490;2023-03-24T10:58:35;16.25;;;2.33;;
41446;SDS011;27185;52.040;4.490;2023-03-24T11:01:24;16.88;;;2.85;;
41446;SDS011;27185;52.040;4.490;2023-03-24T11:04:14;19.55;;;3.03;;
41446;SDS011;27185;52.040;4.490;2023-03-24T11:15:51;18.92;;;2.28;;
41446;SDS011;27185;52.040;4.490;2023-03-24T11:19:03;12.55;;;1.67;;
41446;SDS011;27185;52.040;4.490;2023-03-24T11:21:51;10.38;;;1.58;;
41446;SDS011;27185;52.040;4.490;2023-03-24T11:24:41;12.38;;;1.08;;
41446;SDS011;27185;52.040;4.490;2023-03-24T11:27:27;12.63;;;2.15;;
41446;SDS011;27185;52.040;4.490;2023-03-24T11:33:01;10.43;;;1.35;;
41446;SDS011;27185;52.040;4.490;2023-03-24T11:35:48;10.93;;;1.60;;
41446;SDS011;27185;52.040;4.490;2023-03-24T11:38:34;12.55;;;1.63;;
41446;SDS011;27185;52.040;4.490;2023-03-24T11:41:19;11.73;;;1.90;;
41446;SDS011;27185;52.040;4.490;2023-03-24T11:47:09;7.93;;;1.33;;
41446;SDS011;27185;52.040;4.490;2023-03-24T11:58:50;11.90;;;1.70;;
41446;SDS011;27185;52.040;4.490;2023-03-24T12:01:48;13.43;;;2.33;;
41446;SDS011;27185;52.040;4.490;2023-03-24T12:13:47;13.43;;;2.10;;
41446;SDS011;27185;52.040;4.490;2023-03-24T12:16:36;17.35;;;2.45;;
41446;SDS011;27185;52.040;4.490;2023-03-24T12:32:07;15.10;;;2.15;;
41446;SDS011;27185;52.040;4.490;2023-03-24T12:57:40;14.75;;;2.42;;
41446;SDS011;27185;52.040;4.490;2023-03-24T13:00:32;14.13;;;2.20;;
41446;SDS011;27185;52.040;4.490;2023-03-24T13:03:26;16.70;;;1.83;;
41446;SDS011;27185;52.040;4.490;2023-03-24T13:06:22;12.38;;;1.85;;
41446;SDS011;27185;52.040;4.490;2023-03-24T13:09:55;13.90;;;1.83;;
41446;SDS011;27185;52.040;4.490;2023-03-24T13:12:31;9.93;;;1.23;;
41446;SDS011;27185;52.040;4.490;2023-03-24T13:15:44;17.60;;;2.85;;
41446;SDS011;27185;52.040;4.490;2023-03-24T13:18:46;13.27;;;2.03;;
41446;SDS011;27185;52.040;4.490;2023-03-24T13:21:36;5.90;;;0.70;;
41446;SDS011;27185;52.040;4.490;2023-03-24T13:24:22;4.65;;;0.68;;
41446;SDS011;27185;52.040;4.490;2023-03-24T13:30:27;4.60;;;0.70;;
41446;SDS011;27185;52.040;4.490;2023-03-24T13:33:16;9.52;;;0.90;;
41446;SDS011;27185;52.040;4.490;2023-03-24T13:39:13;12.45;;;1.70;;
41446;SDS011;27185;52.040;4.490;2023-03-24T13:42:03;7.50;;;1.10;;
41446;SDS011;27185;52.040;4.490;2023-03-24T13:44:49;9.02;;;1.77;;
41446;SDS011;27185;52.040;4.490;2023-03-24T13:47:48;13.60;;;1.58;;
41446;SDS011;27185;52.040;4.490;2023-03-24T13:50:55;11.77;;;1.77;;
41446;SDS011;27185;52.040;4.490;2023-03-24T13:53:54;9.88;;;1.92;;
41446;SDS011;27185;52.040;4.490;2023-03-24T14:00:00;8.70;;;1.38;;
41446;SDS011;27185;52.040;4.490;2023-03-24T14:02:51;12.38;;;1.48;;
41446;SDS011;27185;52.040;4.490;2023-03-24T14:06:00;11.68;;;1.77;;
41446;SDS011;27185;52.040;4.490;2023-03-24T14:14:26;10.73;;;1.33;;
41446;SDS011;27185;52.040;4.490;2023-03-24T14:17:14;9.23;;;0.98;;
41446;SDS011;27185;52.040;4.490;2023-03-24T14:22:49;8.63;;;1.08;;
41446;SDS011;27185;52.040;4.490;2023-03-24T14:25:37;7.55;;;0.70;;
41446;SDS011;27185;52.040;4.490;2023-03-24T14:31:29;11.60;;;1.30;;
41446;SDS011;27185;52.040;4.490;2023-03-24T14:34:17;9.20;;;1.23;;
41446;SDS011;27185;52.040;4.490;2023-03-24T14:37:09;12.82;;;1.80;;
41446;SDS011;27185;52.040;4.490;2023-03-24T14:39:55;14.40;;;2.38;;
41446;SDS011;27185;52.040;4.490;2023-03-24T14:51:49;13.02;;;1.95;;
41446;SDS011;27185;52.040;4.490;2023-03-24T14:54:38;14.77;;;2.17;;
41446;SDS011;27185;52.040;4.490;2023-03-24T14:57:30;10.73;;;1.55;;
41446;SDS011;27185;52.040;4.490;2023-03-24T15:00:30;15.68;;;2.22;;
41446;SDS011;27185;52.040;4.490;2023-03-24T15:06:23;13.57;;;1.50;;
41446;SDS011;27185;52.040;4.490;2023-03-24T15:09:09;13.30;;;1.90;;
41446;SDS011;27185;52.040;4.490;2023-03-24T15:11:55;11.52;;;1.88;;
41446;SDS011;27185;52.040;4.490;2023-03-24T15:14:44;10.48;;;1.60;;
41446;SDS011;27185;52.040;4.490;2023-03-24T15:17:29;16.05;;;2.17;;
41446;SDS011;27185;52.040;4.490;2023-03-24T15:23:11;11.75;;;1.60;;
41446;SDS011;27185;52.040;4.490;2023-03-24T15:26:01;8.90;;;1.20;;
41446;SDS011;27185;52.040;4.490;2023-03-24T15:29:04;11.48;;;1.40;;
41446;SDS011;27185;52.040;4.490;2023-03-24T15:31:50;11.45;;;2.00;;
41446;SDS011;27185;52.040;4.490;2023-03-24T15:34:38;12.18;;;1.60;;
41446;SDS011;27185;52.040;4.490;2023-03-24T15:37:30;13.07;;;2.15;;
41446;SDS011;27185;52.040;4.490;2023-03-24T15:43:15;12.70;;;1.30;;
41446;SDS011;27185;52.040;4.490;2023-03-24T15:46:03;9.60;;;1.60;;
41446;SDS011;27185;52.040;4.490;2023-03-24T15:48:51;10.48;;;1.73;;
41446;SDS011;27185;52.040;4.490;2023-03-24T15:51:48;13.40;;;1.98;;
41446;SDS011;27185;52.040;4.490;2023-03-24T15:57:24;10.45;;;1.10;;
41446;SDS011;27185;52.040;4.490;2023-03-24T16:00:14;12.77;;;1.70;;
41446;SDS011;27185;52.040;4.490;2023-03-24T16:03:03;14.85;;;2.10;;
41446;SDS011;27185;52.040;4.490;2023-03-24T16:05:51;9.98;;;1.73;;
41446;SDS011;27185;52.040;4.490;2023-03-24T16:08:41;11.30;;;1.65;;
41446;SDS011;27185;52.040;4.490;2023-03-24T16:11:27;11.60;;;1.85;;
41446;SDS011;27185;52.040;4.490;2023-03-24T16:14:18;13.45;;;1.95;;
41446;SDS011;27185;52.040;4.490;2023-03-24T16:17:07;11.02;;;2.00;;
41446;SDS011;27185;52.040;4.490;2023-03-24T16:19:53;10.60;;;2.10;;
41446;SDS011;27185;52.040;4.490;2023-03-24T16:22:39;14.07;;;1.90;;
41446;SDS011;27185;52.040;4.490;2023-03-24T16:25:25;12.52;;;1.85;;
41446;SDS011;27185;52.040;4.490;2023-03-24T16:28:11;13.05;;;1.65;;
41446;SDS011;27185;52.040;4.490;2023-03-24T16:31:01;10.10;;;1.77;;
41446;SDS011;27185;52.040;4.490;2023-03-24T16:33:48;9.25;;;1.67;;
41446;SDS011;27185;52.040;4.490;2023-03-24T16:36:35;12.75;;;1.83;;
41446;SDS011;27185;52.040;4.490;2023-03-24T16:39:22;9.85;;;1.27;;
41446;SDS011;27185;52.040;4.490;2023-03-24T16:42:08;11.40;;;1.90;;
41446;SDS011;27185;52.040;4.490;2023-03-24T16:44:54;9.38;;;1.50;;
41446;SDS011;27185;52.040;4.490;2023-03-24T16:47:40;10.98;;;1.60;;
41446;SDS011;27185;52.040;4.490;2023-03-24T16:50:36;11.98;;;1.50;;
41446;SDS011;27185;52.040;4.490;2023-03-24T16:53:23;7.18;;;1.20;;
41446;SDS011;27185;52.040;4.490;2023-03-24T16:56:11;7.28;;;1.52;;
41446;SDS011;27185;52.040;4.490;2023-03-24T16:58:58;10.95;;;1.40;;
41446;SDS011;27185;52.040;4.490;2023-03-24T17:01:44;11.30;;;1.70;;
41446;SDS011;27185;52.040;4.490;2023-03-24T17:04:29;9.38;;;1.63;;
41446;SDS011;27185;52.040;4.490;2023-03-24T17:10:03;7.38;;;0.80;;
41446;SDS011;27185;52.040;4.490;2023-03-24T17:12:49;16.55;;;1.73;;
41446;SDS011;27185;52.040;4.490;2023-03-24T17:15:36;13.02;;;1.38;;
41446;SDS011;27185;52.040;4.490;2023-03-24T17:18:22;12.85;;;1.40;;
41446;SDS011;27185;52.040;4.490;2023-03-24T17:21:26;10.25;;;1.23;;
41446;SDS011;27185;52.040;4.490;2023-03-24T17:24:11;11.55;;;1.45;;
41446;SDS011;27185;52.040;4.490;2023-03-24T17:26:58;9.93;;;1.40;;
41446;SDS011;27185;52.040;4.490;2023-03-24T17:29:45;11.33;;;1.70;;
41446;SDS011;27185;52.040;4.490;2023-03-24T17:32:31;8.65;;;1.48;;
41446;SDS011;27185;52.040;4.490;2023-03-24T17:35:18;11.48;;;1.35;;
41446;SDS011;27185;52.040;4.490;2023-03-24T17:38:05;16.05;;;1.20;;
41446;SDS011;27185;52.040;4.490;2023-03-24T17:41:00;11.30;;;2.03;;
41446;SDS011;27185;52.040;4.490;2023-03-24T17:43:47;8.68;;;1.25;;
41446;SDS011;27185;52.040;4.490;2023-03-24T17:46:33;13.75;;;1.25;;
41446;SDS011;27185;52.040;4.490;2023-03-24T17:49:19;11.35;;;1.98;;
41446;SDS011;27185;52.040;4.490;2023-03-24T17:52:06;12.23;;;1.70;;
41446;SDS011;27185;52.040;4.490;2023-03-24T17:54:51;16.25;;;1.95;;
41446;SDS011;27185;52.040;4.490;2023-03-24T17:57:37;15.75;;;2.30;;
41446;SDS011;27185;52.040;4.490;2023-03-24T18:00:23;8.32;;;1.35;;
41446;SDS011;27185;52.040;4.490;2023-03-24T18:03:08;12.52;;;1.50;;
41446;SDS011;27185;52.040;4.490;2023-03-24T18:05:54;15.43;;;1.80;;
41446;SDS011;27185;52.040;4.490;2023-03-24T18:08:40;16.20;;;1.40;;
41446;SDS011;27185;52.040;4.490;2023-03-24T18:11:26;14.38;;;1.10;;
41446;SDS011;27185;52.040;4.490;2023-03-24T18:14:12;8.95;;;1.20;;
41446;SDS011;27185;52.040;4.490;2023-03-24T18:16:57;15.95;;;2.33;;
41446;SDS011;27185;52.040;4.490;2023-03-24T18:19:43;16.00;;;1.85;;
41446;SDS011;27185;52.040;4.490;2023-03-24T18:22:29;13.32;;;2.00;;
41446;SDS011;27185;52.040;4.490;2023-03-24T18:25:15;13.68;;;1.67;;
41446;SDS011;27185;52.040;4.490;2023-03-24T18:28:00;14.73;;;2.10;;
41446;SDS011;27185;52.040;4.490;2023-03-24T18:30:46;9.90;;;1.50;;
41446;SDS011;27185;52.040;4.490;2023-03-24T18:33:32;13.77;;;1.60;;
41446;SDS011;27185;52.040;4.490;2023-03-24T18:36:18;17.52;;;1.67;;
41446;SDS011;27185;52.040;4.490;2023-03-24T18:39:06;11.85;;;2.10;;
41446;SDS011;27185;52.040;4.490;2023-03-24T18:41:53;16.60;;;2.20;;
41446;SDS011;27185;52.040;4.490;2023-03-24T18:44:38;11.90;;;2.05;;
41446;SDS011;27185;52.040;4.490;2023-03-24T18:47:24;11.45;;;1.63;;
41446;SDS011;27185;52.040;4.490;2023-03-24T18:50:10;12.52;;;1.80;;
41446;SDS011;27185;52.040;4.490;2023-03-24T18:52:56;18.85;;;2.08;;
41446;SDS011;27185;52.040;4.490;2023-03-24T18:55:42;14.35;;;2.30;;
41446;SDS011;27185;52.040;4.490;2023-03-24T18:58:30;18.80;;;2.35;;
41446;SDS011;27185;52.040;4.490;2023-03-24T19:01:16;16.98;;;1.88;;
41446;SDS011;27185;52.040;4.490;2023-03-24T19:04:06;13.05;;;1.73;;
41446;SDS011;27185;52.040;4.490;2023-03-24T19:06:53;16.13;;;2.35;;
41446;SDS011;27185;52.040;4.490;2023-03-24T19:09:41;17.25;;;1.90;;
41446;SDS011;27185;52.040;4.490;2023-03-24T19:12:27;12.18;;;1.80;;
41446;SDS011;27185;52.040;4.490;2023-03-24T19:15:13;14.25;;;2.13;;
41446;SDS011;27185;52.040;4.490;2023-03-24T19:17:58;14.02;;;1.63;;
41446;SDS011;27185;52.040;4.490;2023-03-24T19:20:44;10.73;;;1.42;;
41446;SDS011;27185;52.040;4.490;2023-03-24T19:23:30;19.10;;;2.55;;
41446;SDS011;27185;52.040;4.490;2023-03-24T19:26:15;13.45;;;1.58;;
41446;SDS011;27185;52.040;4.490;2023-03-24T19:29:03;10.40;;;1.48;;
41446;SDS011;27185;52.040;4.490;2023-03-24T19:31:49;15.85;;;1.70;;
41446;SDS011;27185;52.040;4.490;2023-03-24T19:34:34;10.38;;;1.50;;
41446;SDS011;27185;52.040;4.490;2023-03-24T19:37:20;16.55;;;1.50;;
41446;SDS011;27185;52.040;4.490;2023-03-24T19:40:07;14.57;;;1.88;;
41446;SDS011;27185;52.040;4.490;2023-03-24T19:42:56;11.52;;;1.52;;
41446;SDS011;27185;52.040;4.490;2023-03-24T19:45:42;11.57;;;1.85;;
41446;SDS011;27185;52.040;4.490;2023-03-24T19:48:32;15.10;;;2.33;;